Saturday, September 22, 2018, 10:34 PM EDT
Back to Local

KMPO, Mt Pocono Pocono Mountains

Location: Pocono Summit, PA, United States Lat: 41.133
Local Time: 10:34 PM EDT ( 2:34 GMT) Lon: -75.383
Time Zone: US/Eastern Elev: 1915 ft

Show me the last for .
Show Decoded

2018-09-22 21:53 METAR KMPO 230153Z AUTO 36011KT 10SM CLR 11/09 A3022 RMK AO2 SLP236 T01110089 =
2018-09-22 20:53 METAR KMPO 230053Z AUTO 36008KT 10SM CLR 11/09 A3023 RMK AO2 SLP239 T01110089 =
2018-09-22 19:53 METAR KMPO 222353Z AUTO 34008KT 10SM CLR 12/09 A3022 RMK AO2 SLP234 T01170094
                 10161 20117 50009 =
2018-09-22 18:53 METAR KMPO 222253Z AUTO 32005KT 10SM CLR 12/10 A3023 RMK AO2 SLP236 T01220100 =
2018-09-22 17:53 METAR KMPO 222153Z AUTO 31006KT 10SM CLR 13/09 A3022 RMK AO2 SLP233 T01330094 =
2018-09-22 16:53 METAR KMPO 222053Z AUTO 35007KT 10SM CLR 14/09 A3019 RMK AO2 SLP219 T01440089
                 55000 =
2018-09-22 15:53 METAR KMPO 221953Z AUTO 32010KT 10SM CLR 15/09 A3019 RMK AO2 SLP217 T01500089 =
2018-09-22 14:53 METAR KMPO 221853Z AUTO 34009KT 10SM CLR 15/09 A3019 RMK AO2 SLP216 T01500089 =
2018-09-22 13:53 METAR KMPO 221753Z AUTO 31012KT 10SM CLR 15/09 A3019 RMK AO2 SLP218 T01500094
                 10150 20128 50000 =
2018-09-22 12:53 METAR KMPO 221653Z AUTO 32009KT 10SM FEW023 14/09 A3020 RMK AO2 SLP221 T01390094
                 =
2018-09-22 12:21 METAR KMPO 221621Z AUTO 33011KT 10SM SCT022 14/09 A3020 RMK AO2 T01390089 =
2018-09-22 11:53 METAR KMPO 221553Z AUTO 34012KT 10SM BKN022 13/09 A3019 RMK AO2 SLP218 T01330089
                 =
2018-09-22 11:36 METAR KMPO 221536Z AUTO 32015G20KT 10SM BKN022 13/09 A3019 RMK AO2 T01330089 =
2018-09-22 10:53 METAR KMPO 221453Z AUTO 34013G21KT 10SM FEW022 13/08 A3019 RMK AO2 SLP219
                 T01330083 51016 =
2018-09-22 10:49 METAR KMPO 221449Z AUTO 34014G21KT 10SM FEW022 13/08 A3019 RMK AO2 =
2018-09-22 09:53 METAR KMPO 221353Z AUTO 31013G21KT 10SM BKN021 14/09 A3017 RMK AO2 PK WND
                 33028/1304 SLP213 T01390094 =
2018-09-22 08:53 METAR KMPO 221253Z AUTO 32015G27KT 10SM CLR 14/10 A3014 RMK AO2 PK WND
                 33030/1201 SLP203 T01390100 =
2018-09-22 07:53 METAR KMPO 221153Z AUTO 32017G25KT 10SM CLR 14/12 A3011 RMK AO2 SLP193 60000
                 70005 T01390122 10194 20139 51024 =
2018-09-22 06:53 METAR KMPO 221053Z AUTO 31018G23KT 10SM CLR 14/12 A3009 RMK AO2 SLP185 T01440122
                 =
2018-09-22 05:53 METAR KMPO 220953Z AUTO 31016G25KT 10SM FEW016 FEW023 16/13 A3006 RMK AO2 PK WND
                 32027/0938 SLP175 T01560133 =
2018-09-22 04:53 METAR KMPO 220853Z AUTO 30012KT 10SM FEW040 17/17 A3003 RMK AO2 SLP165 60000
                 T01720167 53009 =
2018-09-22 04:31 METAR KMPO 220831Z AUTO 30011KT 10SM FEW012 SCT017 BKN036 18/17 A3002 RMK AO2
                 T01830172 =
2018-09-22 04:13 METAR KMPO 220813Z AUTO 30011G19KT 10SM SCT012 BKN017 BKN023 19/19 A3002 RMK AO2
                 T01890189 =
2018-09-22 03:53 METAR KMPO 220753Z AUTO 28009KT 10SM FEW055 19/19 A3002 RMK AO2 SLP159 T01890189
                 =
2018-09-22 03:12 METAR KMPO 220712Z AUTO 27010KT 10SM SCT006 BKN037 BKN046 19/19 A3001 RMK AO2
                 T01940194 =
2018-09-22 02:53 METAR KMPO 220653Z AUTO 26010KT 10SM BKN006 OVC039 19/19 A3001 RMK AO2
                 RAE0557B09E22 SLP155 P0000 T01940194 =
2018-09-22 02:41 METAR KMPO 220641Z AUTO 26009G18KT 10SM BKN006 OVC042 19/19 A3001 RMK AO2
                 RAE0557B09E22 CIG 004V009 P0000 T01940194 =
2018-09-22 02:05 METAR KMPO 220605Z AUTO 26011KT 10SM BKN009 OVC020 19/19 A3001 RMK AO2 RAE0557
                 CIG 005V016 P0000 T01940194 =
2018-09-22 01:58 METAR KMPO 220558Z AUTO 27010G21KT 10SM SCT006 BKN011 OVC048 19/19 A3000 RMK AO2
                 RAE57 P0000 T01940194 =
2018-09-22 01:53 METAR KMPO 220553Z AUTO 26012G23KT 10SM -RA BKN006 BKN012 OVC019 19/19 A3001 RMK
                 AO2 RAB12 CIG 004V010 SLP154 P0005 60005 T01940194 10194 20172 55005 =
2018-09-22 01:49 METAR KMPO 220549Z AUTO 27012G23KT 10SM -RA SCT006 BKN012 OVC019 19/19 A3000 RMK
                 AO2 RAB12 P0005 =
2018-09-22 01:17 METAR KMPO 220517Z AUTO 23011KT 7SM -RA OVC005 19/19 A2999 RMK AO2 RAB12 CIG
                 003V008 P0001 T01940194 =
2018-09-22 00:53 METAR KMPO 220453Z AUTO 23013G21KT 9SM OVC004 19/19 A2999 RMK AO2 RAB41E52 CIG
                 001V007 SLP149 P0000 T01890189 401890144 =
2018-09-22 00:35 METAR KMPO 220435Z AUTO 22015G24KT 3SM BR OVC002 19/19 A3000 RMK AO2 T01890189 =
2018-09-22 00:15 METAR KMPO 220415Z AUTO 23009G22KT 1 1/2SM BR OVC002 19/19 A3000 RMK AO2
                 T01890189 =
2018-09-22 00:01 METAR KMPO 220401Z AUTO 22013G20KT 2 1/2SM BR OVC002 19/19 A3000 RMK AO2
                 T01890189 =
2018-09-21 23:53 METAR KMPO 220353Z AUTO 22010G20KT 3SM BR OVC002 18/18 A3000 RMK AO2 SLP153
                 T01830183 =
2018-09-21 22:53 METAR KMPO 220253Z AUTO 21012G21KT 3SM BR OVC002 18/18 A3002 RMK AO2 SLP161
                 T01830183 50002 =

Support USWX by starting your Amazon purchase here.